createdAt,value
2019-03-27T00:01:40.933Z,4.64
2019-03-27T00:04:10.945Z,4.62
2019-03-27T00:06:40.994Z,4.60
2019-03-27T00:09:11.022Z,4.58
2019-03-27T00:11:41.060Z,4.58
2019-03-27T00:14:11.087Z,4.65
2019-03-27T00:16:41.402Z,4.49
2019-03-27T00:19:11.441Z,4.49
2019-03-27T00:21:41.457Z,4.69
2019-03-27T00:24:11.489Z,4.63
2019-03-27T00:26:41.525Z,4.66
2019-03-27T00:29:11.552Z,4.75
2019-03-27T00:31:41.591Z,4.70
2019-03-27T00:34:11.614Z,4.66
2019-03-27T00:36:41.670Z,4.59
2019-03-27T00:39:11.699Z,4.50
2019-03-27T00:41:42.039Z,4.71
2019-03-27T00:44:12.070Z,4.59
2019-03-27T00:46:42.124Z,4.60
2019-03-27T00:49:12.142Z,4.60
2019-03-27T00:51:42.561Z,4.51
2019-03-27T00:54:12.588Z,4.67
2019-03-27T00:56:42.639Z,4.67
2019-03-27T01:01:52.467Z,4.61
2019-03-27T01:04:22.488Z,4.59
2019-03-27T01:06:52.541Z,4.65
2019-03-27T01:09:22.579Z,4.53
2019-03-27T01:11:52.900Z,4.71
2019-03-27T01:14:23.220Z,4.51
2019-03-27T01:16:53.265Z,4.51
2019-03-27T01:19:23.283Z,4.53
2019-03-27T01:21:53.328Z,4.40
2019-03-27T01:24:23.712Z,4.55
2019-03-27T01:26:54.013Z,4.41
2019-03-27T01:29:24.053Z,4.36
2019-03-27T01:31:54.097Z,4.50
2019-03-27T01:34:24.120Z,4.47
2019-03-27T01:36:54.153Z,4.47
2019-03-27T01:39:24.188Z,4.51
2019-03-27T01:41:54.223Z,4.44
2019-03-27T01:44:24.653Z,4.49
2019-03-27T01:46:54.710Z,4.52
2019-03-27T01:49:24.738Z,4.50
2019-03-27T01:51:54.790Z,4.34
2019-03-27T01:54:24.807Z,4.35
2019-03-27T01:56:54.853Z,4.47
2019-03-27T01:59:25.240Z,4.50
2019-03-27T02:01:55.289Z,4.47
2019-03-27T02:04:25.308Z,4.47
2019-03-27T02:06:55.703Z,4.45
2019-03-27T02:09:25.750Z,4.48
2019-03-27T02:11:55.782Z,4.41
2019-03-27T02:14:26.150Z,4.33
2019-03-27T02:16:56.189Z,4.33
2019-03-27T02:19:26.210Z,4.36
2019-03-27T02:21:56.254Z,4.29
2019-03-27T02:24:26.289Z,4.27
2019-03-27T02:26:56.374Z,4.35
2019-03-27T02:29:26.391Z,4.31
2019-03-27T02:31:56.426Z,4.24
2019-03-27T02:34:26.446Z,4.31
2019-03-27T02:36:56.498Z,4.38
2019-03-27T02:39:26.534Z,4.22
2019-03-27T02:41:56.562Z,4.13
2019-03-27T02:44:26.601Z,4.13
2019-03-27T02:46:56.968Z,4.16
2019-03-27T02:49:27.009Z,4.12
2019-03-27T02:51:57.065Z,4.23
2019-03-27T02:54:27.094Z,4.23
2019-03-27T02:56:57.127Z,4.31
2019-03-27T02:59:27.153Z,4.21
2019-03-27T03:04:36.590Z,4.20
2019-03-27T03:07:06.927Z,4.21
2019-03-27T03:09:37.248Z,4.17
2019-03-27T03:12:07.300Z,4.07
2019-03-27T03:17:16.704Z,3.98
2019-03-27T03:19:46.735Z,3.90
2019-03-27T03:22:16.808Z,3.95
2019-03-27T03:24:47.164Z,3.95
2019-03-27T03:27:17.486Z,3.89
2019-03-27T03:29:47.505Z,3.91
2019-03-27T03:32:17.542Z,3.92
2019-03-27T03:37:26.955Z,3.92
2019-03-27T03:39:57.029Z,3.77
2019-03-27T03:42:27.005Z,3.77
2019-03-27T03:44:57.029Z,3.89
2019-03-27T03:47:27.081Z,4.01
2019-03-27T03:49:57.456Z,3.78
2019-03-27T03:52:27.505Z,3.71
2019-03-27T03:54:57.535Z,3.73
2019-03-27T03:57:27.588Z,3.81
2019-03-27T03:59:57.670Z,3.81
2019-03-27T04:05:07.406Z,3.78
2019-03-27T04:07:37.436Z,3.63
2019-03-27T04:10:07.823Z,3.58
2019-03-27T04:12:37.860Z,3.47
2019-03-27T04:15:07.897Z,3.47
2019-03-27T04:17:38.281Z,3.44
2019-03-27T04:20:08.295Z,3.51
2019-03-27T04:22:38.606Z,3.46
2019-03-27T04:25:08.644Z,3.46
2019-03-27T04:27:39.051Z,3.49
2019-03-27T04:30:09.370Z,3.35
2019-03-27T04:32:39.714Z,3.23
2019-03-27T04:35:09.746Z,3.34
2019-03-27T04:37:39.795Z,3.08
2019-03-27T04:40:09.820Z,2.99
2019-03-27T04:42:39.858Z,3.17
2019-03-27T04:45:09.896Z,3.17
2019-03-27T04:47:39.947Z,3.15
2019-03-27T04:50:10.344Z,3.15
2019-03-27T04:52:40.391Z,3.21
2019-03-27T04:55:10.681Z,3.14
2019-03-27T04:57:41.071Z,2.99
2019-03-27T05:00:11.097Z,2.92
2019-03-27T05:02:41.485Z,3.09
2019-03-27T05:05:11.728Z,2.99
2019-03-27T05:10:21.157Z,3.04
2019-03-27T05:12:51.206Z,3.00
2019-03-27T05:18:00.641Z,2.99
2019-03-27T05:20:30.666Z,2.93
2019-03-27T05:23:00.984Z,3.17
2019-03-27T05:25:31.305Z,3.03
2019-03-27T05:28:01.356Z,3.11
2019-03-27T05:30:31.406Z,3.05
2019-03-27T05:33:01.442Z,3.00
2019-03-27T05:35:31.782Z,2.99
2019-03-27T05:38:01.836Z,3.10
2019-03-27T05:40:31.868Z,3.19
2019-03-27T05:43:01.911Z,3.22
2019-03-27T05:45:32.255Z,3.36
2019-03-27T05:48:02.305Z,3.39
2019-03-27T05:50:32.329Z,3.32
2019-03-27T05:53:02.373Z,3.37
2019-03-27T05:55:32.733Z,3.54
2019-03-27T05:58:02.783Z,3.64
2019-03-27T06:00:33.527Z,3.68
2019-03-27T06:03:03.212Z,3.70
2019-03-27T06:05:33.246Z,3.68
2019-03-27T06:08:03.264Z,3.79
2019-03-27T06:10:33.653Z,3.83
2019-03-27T06:13:03.721Z,3.92
2019-03-27T06:15:34.071Z,3.92
2019-03-27T06:18:13.073Z,4.03
2019-03-27T06:20:34.512Z,3.89
2019-03-27T06:23:04.541Z,3.83
2019-03-27T06:25:34.958Z,3.90
2019-03-27T06:28:05.287Z,3.78
2019-03-27T06:30:35.593Z,3.77
2019-03-27T06:33:05.628Z,3.72
2019-03-27T06:35:35.769Z,3.83
2019-03-27T06:38:06.176Z,3.83
2019-03-27T06:40:39.551Z,4.04
2019-03-27T06:43:06.262Z,3.97
2019-03-27T06:45:36.316Z,4.01
2019-03-27T06:48:06.361Z,4.07
2019-03-27T06:50:36.391Z,4.09
2019-03-27T06:53:06.430Z,4.11
2019-03-27T06:55:36.472Z,4.13
2019-03-27T06:58:06.525Z,4.18
2019-03-27T07:00:36.915Z,4.31
2019-03-27T07:03:06.949Z,4.36
2019-03-27T07:05:36.998Z,4.36
2019-03-27T07:08:07.034Z,4.37
2019-03-27T07:10:37.074Z,4.59
2019-03-27T07:13:07.392Z,4.59
2019-03-27T07:18:16.790Z,4.68
2019-03-27T07:20:46.836Z,4.84
2019-03-27T07:23:16.864Z,4.93
2019-03-27T07:25:46.897Z,4.96
2019-03-27T07:28:16.936Z,5.11
2019-03-27T07:30:46.998Z,5.13
2019-03-27T07:33:17.073Z,5.25
2019-03-27T07:35:47.116Z,5.25
2019-03-27T07:38:17.482Z,5.38
2019-03-27T07:40:47.525Z,5.42
2019-03-27T07:43:17.569Z,5.46
2019-03-27T07:48:26.968Z,5.55
2019-03-27T07:50:57.283Z,5.55
2019-03-27T07:53:27.314Z,5.70
2019-03-27T07:55:57.847Z,5.69
2019-03-27T07:58:28.154Z,5.68
2019-03-27T08:00:58.478Z,5.82
2019-03-27T08:03:28.528Z,5.82
2019-03-27T08:05:59.164Z,5.84
2019-03-27T08:08:29.538Z,5.87
2019-03-27T08:10:59.587Z,5.97
2019-03-27T08:13:29.984Z,6.02
2019-03-27T08:16:00.040Z,6.20
2019-03-27T08:18:30.094Z,6.20
2019-03-27T08:21:00.454Z,6.15
2019-03-27T08:23:30.481Z,6.19
2019-03-27T08:26:00.528Z,6.31
2019-03-27T08:28:30.578Z,6.32
2019-03-27T08:31:00.619Z,6.31
2019-03-27T08:33:30.923Z,6.36
2019-03-27T08:36:00.978Z,6.41
2019-03-27T08:38:31.364Z,6.45
2019-03-27T08:41:01.436Z,6.54
2019-03-27T08:43:31.475Z,6.59
2019-03-27T08:46:01.550Z,6.66
2019-03-27T08:48:31.938Z,6.70
2019-03-27T08:51:01.990Z,6.74
2019-03-27T08:53:32.021Z,6.78
2019-03-27T08:56:02.070Z,6.87
2019-03-27T08:58:32.107Z,6.96
2019-03-27T09:01:02.167Z,6.93
2019-03-27T09:03:32.549Z,7.07
2019-03-27T09:06:02.988Z,7.14
2019-03-27T09:08:33.024Z,7.16
2019-03-27T09:11:04.698Z,7.27
2019-03-27T09:13:33.108Z,7.09
2019-03-27T09:16:03.157Z,7.23
2019-03-27T09:18:33.298Z,7.42
2019-03-27T09:21:03.672Z,7.54
2019-03-27T09:23:33.705Z,7.50
2019-03-27T09:26:03.748Z,7.63
2019-03-27T09:28:33.789Z,7.63
2019-03-27T09:31:03.845Z,7.63
2019-03-27T09:33:33.873Z,7.62
2019-03-27T09:36:04.415Z,7.59
2019-03-27T09:38:34.310Z,7.68
2019-03-27T09:41:04.356Z,7.86
2019-03-27T09:43:34.411Z,7.89
2019-03-27T09:46:04.427Z,7.84
2019-03-27T09:48:34.458Z,7.94
2019-03-27T09:51:04.497Z,8.01
2019-03-27T09:53:34.532Z,7.91
2019-03-27T09:56:18.024Z,7.98
2019-03-27T09:58:34.613Z,7.87
2019-03-27T10:01:04.659Z,7.88
2019-03-27T10:03:34.952Z,8.13
2019-03-27T10:06:04.989Z,8.04
2019-03-27T10:08:35.291Z,8.05
2019-03-27T10:11:05.618Z,8.18
2019-03-27T10:13:35.649Z,8.27
2019-03-27T10:16:05.688Z,8.25
2019-03-27T10:18:36.082Z,8.25
2019-03-27T10:21:06.127Z,8.35
2019-03-27T10:23:36.511Z,8.36
2019-03-27T10:26:06.553Z,8.36
2019-03-27T10:28:36.959Z,8.14
2019-03-27T10:33:46.643Z,8.44
2019-03-27T10:36:17.063Z,8.49
2019-03-27T10:38:47.099Z,8.61
2019-03-27T10:41:17.135Z,8.63
2019-03-27T10:43:47.168Z,8.52
2019-03-27T10:46:17.214Z,8.50
2019-03-27T10:48:52.763Z,8.59
2019-03-27T10:51:17.574Z,8.52
2019-03-27T10:53:47.611Z,8.72
2019-03-27T10:56:17.986Z,8.73
2019-03-27T10:58:48.305Z,8.67
2019-03-27T11:01:18.360Z,8.73
2019-03-27T11:03:48.488Z,8.66
2019-03-27T11:08:58.137Z,8.76
2019-03-27T11:11:28.537Z,8.75
2019-03-27T11:13:58.562Z,8.91
2019-03-27T11:16:28.600Z,8.83
2019-03-27T11:18:58.639Z,8.98
2019-03-27T11:21:28.678Z,9.01
2019-03-27T11:23:58.714Z,9.06
2019-03-27T11:26:28.782Z,9.29
2019-03-27T11:28:58.817Z,9.32
2019-03-27T11:31:29.168Z,9.43
2019-03-27T11:33:59.209Z,9.31
2019-03-27T11:36:29.255Z,9.30
2019-03-27T11:38:59.286Z,9.10
2019-03-27T11:41:29.341Z,9.14
2019-03-27T11:43:59.366Z,9.33
2019-03-27T11:46:32.043Z,9.26
2019-03-27T11:48:59.471Z,9.41
2019-03-27T11:51:29.517Z,9.30
2019-03-27T11:53:59.548Z,9.20
2019-03-27T11:56:29.593Z,9.42
2019-03-27T11:58:59.626Z,9.41
2019-03-27T12:01:40.683Z,9.36
2019-03-27T12:04:00.062Z,9.26
2019-03-27T12:06:30.379Z,9.26
2019-03-27T12:09:00.410Z,9.39
2019-03-27T12:11:30.460Z,9.49
2019-03-27T12:14:00.865Z,9.52
2019-03-27T12:16:30.913Z,9.46
2019-03-27T12:19:00.947Z,9.39
2019-03-27T12:21:31.293Z,9.40
2019-03-27T12:24:01.618Z,9.55
2019-03-27T12:29:11.028Z,9.57
2019-03-27T12:31:41.083Z,9.58
2019-03-27T12:34:11.409Z,9.53
2019-03-27T12:36:41.736Z,9.45
2019-03-27T12:39:11.783Z,9.62
2019-03-27T12:41:41.831Z,9.80
2019-03-27T12:44:12.196Z,9.82
2019-03-27T12:46:42.244Z,9.97
2019-03-27T12:49:12.277Z,9.94
2019-03-27T12:51:42.345Z,10.08
2019-03-27T12:54:12.666Z,10.10
2019-03-27T12:56:42.747Z,10.29
2019-03-27T12:59:12.784Z,10.19
2019-03-27T13:01:43.143Z,10.04
2019-03-27T13:04:13.166Z,9.89
2019-03-27T13:06:43.212Z,9.62
2019-03-27T13:09:13.567Z,9.65
2019-03-27T13:11:43.918Z,9.52
2019-03-27T13:14:13.946Z,9.48
2019-03-27T13:16:43.995Z,9.48
2019-03-27T13:19:14.345Z,9.59
2019-03-27T13:21:44.426Z,9.64
2019-03-27T13:24:14.789Z,9.72
2019-03-27T13:26:45.104Z,9.63
2019-03-27T13:29:15.169Z,9.70
2019-03-27T13:31:45.197Z,9.85
2019-03-27T13:34:15.228Z,9.90
2019-03-27T13:36:45.280Z,9.94
2019-03-27T13:39:15.298Z,9.89
2019-03-27T13:41:45.335Z,9.80
2019-03-27T13:44:15.399Z,9.89
2019-03-27T13:46:45.445Z,9.92
2019-03-27T13:49:15.428Z,9.94
2019-03-27T13:51:45.619Z,9.99
2019-03-27T13:54:15.655Z,10.07
2019-03-27T13:56:46.013Z,10.14
2019-03-27T13:59:16.333Z,10.18
2019-03-27T14:01:46.385Z,10.30
2019-03-27T14:04:16.420Z,10.25
2019-03-27T14:06:46.796Z,10.36
2019-03-27T14:09:16.845Z,10.41
2019-03-27T14:11:46.898Z,10.23
2019-03-27T14:14:17.252Z,10.16
2019-03-27T14:16:47.279Z,10.19
2019-03-27T14:19:17.326Z,10.31
2019-03-27T14:21:54.459Z,10.35
2019-03-27T14:24:17.753Z,10.40
2019-03-27T14:26:47.776Z,10.34
2019-03-27T14:29:18.185Z,10.39
2019-03-27T14:31:48.189Z,10.45
2019-03-27T14:34:20.369Z,10.38
2019-03-27T14:36:48.264Z,10.25
2019-03-27T14:39:18.640Z,10.34
2019-03-27T14:41:48.675Z,10.30
2019-03-27T14:44:18.978Z,10.22
2019-03-27T14:46:49.022Z,10.36
2019-03-27T14:49:19.050Z,10.52
2019-03-27T14:51:49.086Z,10.57
2019-03-27T14:54:19.118Z,10.43
2019-03-27T14:56:49.457Z,10.47
2019-03-27T14:59:20.122Z,10.50
2019-03-27T15:01:50.510Z,10.57
2019-03-27T15:04:20.549Z,10.56
2019-03-27T15:06:50.579Z,10.45
2019-03-27T15:09:20.621Z,10.45
2019-03-27T15:11:50.653Z,10.39
2019-03-27T15:14:20.691Z,10.46
2019-03-27T15:16:50.782Z,10.42
2019-03-27T15:19:20.866Z,10.36
2019-03-27T15:21:51.248Z,10.31
2019-03-27T15:24:21.301Z,10.41
2019-03-27T15:26:51.334Z,10.35
2019-03-27T15:29:21.700Z,10.50
2019-03-27T15:31:51.759Z,10.65
2019-03-27T15:34:21.811Z,10.53
2019-03-27T15:36:51.860Z,10.39
2019-03-27T15:39:21.918Z,10.25
2019-03-27T15:41:52.292Z,10.18
2019-03-27T15:44:22.334Z,10.35
2019-03-27T15:46:52.360Z,10.27
2019-03-27T15:49:22.414Z,10.22
2019-03-27T15:51:52.451Z,10.08
2019-03-27T15:54:22.510Z,10.14
2019-03-27T15:56:52.547Z,10.08
2019-03-27T15:59:22.594Z,10.07
2019-03-27T16:01:52.633Z,10.13
2019-03-27T16:04:22.686Z,9.89
2019-03-27T16:06:52.725Z,9.90
2019-03-27T16:12:02.443Z,10.05
2019-03-27T16:14:32.484Z,10.04
2019-03-27T16:17:13.365Z,10.05
2019-03-27T16:19:32.803Z,9.98
2019-03-27T16:22:03.082Z,9.97
2019-03-27T16:24:33.213Z,9.85
2019-03-27T16:27:04.590Z,10.05
2019-03-27T16:29:33.646Z,10.04
2019-03-27T16:32:03.693Z,10.00
2019-03-27T16:34:33.730Z,10.06
2019-03-27T16:39:43.433Z,10.11
2019-03-27T16:42:13.762Z,10.22
2019-03-27T16:44:43.810Z,10.11
2019-03-27T16:47:14.204Z,10.01
2019-03-27T16:49:44.254Z,10.01
2019-03-27T16:54:53.682Z,9.93
2019-03-27T16:57:24.122Z,9.78
2019-03-27T16:59:54.252Z,9.68
2019-03-27T17:02:24.627Z,9.63
2019-03-27T17:04:55.060Z,9.54
2019-03-27T17:07:25.069Z,9.53
2019-03-27T17:09:55.116Z,9.44
2019-03-27T17:12:25.516Z,9.35
2019-03-27T17:14:55.874Z,9.13
2019-03-27T17:17:25.915Z,9.36
2019-03-27T17:19:56.296Z,9.22
2019-03-27T17:22:26.591Z,9.07
2019-03-27T17:24:57.181Z,8.88
2019-03-27T17:27:27.567Z,8.82
2019-03-27T17:29:57.613Z,8.83
2019-03-27T17:32:27.666Z,8.88
2019-03-27T17:34:58.005Z,9.03
2019-03-27T17:37:28.318Z,9.23
2019-03-27T17:39:58.500Z,8.94
2019-03-27T17:42:28.863Z,8.77
2019-03-27T17:47:38.272Z,8.75
2019-03-27T17:50:08.323Z,8.63
2019-03-27T17:52:38.676Z,8.65
2019-03-27T17:55:08.394Z,8.63
2019-03-27T17:57:38.423Z,8.86
2019-03-27T18:00:08.478Z,8.77
2019-03-27T18:02:38.814Z,8.86
2019-03-27T18:05:09.169Z,8.74
2019-03-27T18:10:18.591Z,8.48
2019-03-27T18:12:48.630Z,8.37
2019-03-27T18:15:18.922Z,8.39
2019-03-27T18:17:49.274Z,8.40
2019-03-27T18:20:19.321Z,8.68
2019-03-27T18:22:49.719Z,8.61
2019-03-27T18:25:20.126Z,8.47
2019-03-27T18:27:50.166Z,8.42
2019-03-27T18:30:20.243Z,8.42
2019-03-27T18:32:50.592Z,8.41
2019-03-27T18:35:20.996Z,8.31
2019-03-27T18:37:50.923Z,8.32
2019-03-27T18:40:20.965Z,8.27
2019-03-27T18:42:50.998Z,8.42
2019-03-27T18:45:21.047Z,8.49
2019-03-27T18:47:51.080Z,8.36
2019-03-27T18:50:21.124Z,8.28
2019-03-27T18:52:54.178Z,8.56
2019-03-27T18:55:26.961Z,8.43
2019-03-27T18:58:00.487Z,8.46
2019-03-27T19:00:24.604Z,8.51
2019-03-27T19:02:54.640Z,8.42
2019-03-27T19:05:24.994Z,8.48
2019-03-27T19:07:55.020Z,8.29
2019-03-27T19:10:25.146Z,8.09
2019-03-27T19:12:55.114Z,8.10
2019-03-27T19:15:25.163Z,8.05
2019-03-27T19:17:55.224Z,8.22
2019-03-27T19:20:25.261Z,8.25
2019-03-27T19:22:55.282Z,8.39
2019-03-27T19:28:04.699Z,8.30
2019-03-27T19:30:35.222Z,8.31
2019-03-27T19:33:05.716Z,8.46
2019-03-27T19:38:15.149Z,8.38
2019-03-27T19:40:45.192Z,8.28
2019-03-27T19:43:15.576Z,8.26
2019-03-27T19:48:24.968Z,8.11
2019-03-27T19:50:54.995Z,8.07
2019-03-27T19:53:25.483Z,8.14
2019-03-27T19:55:55.691Z,8.26
2019-03-27T19:58:26.149Z,8.27
2019-03-27T20:00:56.196Z,8.26
2019-03-27T20:03:26.465Z,8.28
2019-03-27T20:05:56.536Z,8.14
2019-03-27T20:08:26.654Z,8.12
2019-03-27T20:10:56.696Z,7.98
2019-03-27T20:13:27.037Z,7.87
2019-03-27T20:15:57.464Z,7.86
2019-03-27T20:18:27.689Z,7.72
2019-03-27T20:20:57.901Z,7.52
2019-03-27T20:23:27.831Z,7.36
2019-03-27T20:25:57.930Z,7.29
2019-03-27T20:28:27.964Z,7.20
2019-03-27T20:30:58.124Z,7.43
2019-03-27T20:33:28.172Z,7.29
2019-03-27T20:35:58.415Z,7.16
2019-03-27T20:38:28.447Z,7.05
2019-03-27T20:40:58.609Z,7.21
2019-03-27T20:43:28.957Z,7.28
2019-03-27T20:45:59.010Z,7.20
2019-03-27T20:48:29.499Z,7.23
2019-03-27T20:50:59.428Z,7.29
2019-03-27T20:53:29.789Z,7.32
2019-03-27T20:56:00.160Z,7.25
2019-03-27T20:58:30.245Z,7.23
2019-03-27T21:01:00.623Z,7.28
2019-03-27T21:03:31.155Z,7.30
2019-03-27T21:06:01.217Z,7.07
2019-03-27T21:08:31.251Z,7.05
2019-03-27T21:11:01.685Z,7.10
2019-03-27T21:13:31.619Z,7.01
2019-03-27T21:16:02.176Z,6.96
2019-03-27T21:18:32.229Z,7.07
2019-03-27T21:21:02.799Z,6.97
2019-03-27T21:23:32.831Z,6.87
2019-03-27T21:26:02.928Z,6.79
2019-03-27T21:28:32.993Z,6.95
2019-03-27T21:31:03.048Z,7.04
2019-03-27T21:36:12.564Z,6.73
2019-03-27T21:38:42.996Z,6.72
2019-03-27T21:41:12.965Z,6.61
2019-03-27T21:43:43.060Z,6.84
2019-03-27T21:46:13.390Z,6.95
2019-03-27T21:48:43.404Z,6.98
2019-03-27T21:51:13.442Z,7.07
2019-03-27T21:53:47.989Z,6.97
2019-03-27T21:56:13.867Z,7.07
2019-03-27T21:58:43.915Z,6.93
2019-03-27T22:01:13.961Z,7.06
2019-03-27T22:03:44.001Z,6.91
2019-03-27T22:06:14.149Z,6.72
2019-03-27T22:11:23.868Z,6.62
2019-03-27T22:13:54.193Z,6.60
2019-03-27T22:16:24.242Z,6.51
2019-03-27T22:18:54.277Z,6.53
2019-03-27T22:21:24.324Z,6.58
2019-03-27T22:23:54.659Z,6.43
2019-03-27T22:26:24.991Z,6.52
2019-03-27T22:28:55.018Z,6.49
2019-03-27T22:31:25.429Z,6.50
2019-03-27T22:33:55.456Z,6.43
2019-03-27T22:36:25.499Z,6.48
2019-03-27T22:38:55.557Z,6.53
2019-03-27T22:41:25.909Z,6.50
2019-03-27T22:43:56.213Z,6.68
2019-03-27T22:46:26.258Z,6.51
2019-03-27T22:48:56.677Z,6.46
2019-03-27T22:51:26.726Z,6.42
2019-03-27T22:53:56.749Z,6.50
2019-03-27T22:59:08.978Z,6.55
2019-03-27T23:01:39.050Z,6.45
2019-03-27T23:04:09.064Z,6.45
2019-03-27T23:06:39.110Z,6.58
2019-03-27T23:09:09.146Z,6.60
2019-03-27T23:11:39.207Z,6.45
2019-03-27T23:14:09.238Z,6.46
2019-03-27T23:16:39.280Z,6.55
2019-03-27T23:19:09.320Z,6.62
2019-03-27T23:21:39.364Z,6.51
2019-03-27T23:24:09.399Z,6.51
2019-03-27T23:26:39.788Z,6.55
2019-03-27T23:29:09.829Z,6.47
2019-03-27T23:31:40.231Z,6.48
2019-03-27T23:34:10.572Z,6.38
2019-03-27T23:36:40.608Z,6.39
2019-03-27T23:39:10.655Z,6.44
2019-03-27T23:41:40.692Z,6.43
2019-03-27T23:44:11.023Z,6.43
2019-03-27T23:46:41.346Z,6.43
2019-03-27T23:49:11.671Z,6.47
2019-03-27T23:51:41.735Z,6.39
2019-03-27T23:54:11.791Z,6.54
2019-03-27T23:56:41.855Z,6.45
2019-03-27T23:59:12.160Z,6.44
